sensor_id;sensor_type;location;lat;lon;timestamp;pressure;altitude;pressure_sealevel;temperature;humidity
50011;BME280;35899;50.352;19.390;2023-08-08T00:01:26;97366.79;;;12.89;100.00
50011;BME280;35899;50.352;19.390;2023-08-08T00:03:52;97371.97;;;12.87;100.00
50011;BME280;35899;50.352;19.390;2023-08-08T00:06:19;97365.77;;;12.85;100.00
50011;BME280;35899;50.352;19.390;2023-08-08T00:08:45;97370.92;;;12.84;100.00
50011;BME280;35899;50.352;19.390;2023-08-08T00:11:12;97374.55;;;12.82;100.00
50011;BME280;35899;50.352;19.390;2023-08-08T00:13:38;97376.44;;;12.80;100.00
50011;BME280;35899;50.352;19.390;2023-08-08T00:16:05;97378.77;;;12.77;100.00
50011;BME280;35899;50.352;19.390;2023-08-08T00:18:32;97379.88;;;12.75;100.00
50011;BME280;35899;50.352;19.390;2023-08-08T00:20:59;97386.36;;;12.72;100.00
50011;BME280;35899;50.352;19.390;2023-08-08T00:23:25;97381.16;;;12.70;100.00
50011;BME280;35899;50.352;19.390;2023-08-08T00:25:52;97382.52;;;12.66;100.00
50011;BME280;35899;50.352;19.390;2023-08-08T00:28:18;97385.23;;;12.63;100.00
50011;BME280;35899;50.352;19.390;2023-08-08T00:30:45;97382.42;;;12.61;100.00
50011;BME280;35899;50.352;19.390;2023-08-08T00:33:12;97382.67;;;12.59;100.00
50011;BME280;35899;50.352;19.390;2023-08-08T00:35:38;97384.53;;;12.56;100.00
50011;BME280;35899;50.352;19.390;2023-08-08T00:38:05;97385.16;;;12.54;100.00
50011;BME280;35899;50.352;19.390;2023-08-08T00:40:32;97389.08;;;12.52;100.00
50011;BME280;35899;50.352;19.390;2023-08-08T00:42:59;97390.95;;;12.51;100.00
50011;BME280;35899;50.352;19.390;2023-08-08T00:45:25;97395.89;;;12.50;100.00
50011;BME280;35899;50.352;19.390;2023-08-08T00:47:52;97399.28;;;12.49;100.00
50011;BME280;35899;50.352;19.390;2023-08-08T00:50:19;97400.17;;;12.47;100.00
50011;BME280;35899;50.352;19.390;2023-08-08T00:52:47;97401.56;;;12.45;100.00
50011;BME280;35899;50.352;19.390;2023-08-08T00:55:15;97404.32;;;12.43;100.00
50011;BME280;35899;50.352;19.390;2023-08-08T00:57:43;97406.07;;;12.41;100.00
50011;BME280;35899;50.352;19.390;2023-08-08T01:00:10;97405.21;;;12.39;100.00
50011;BME280;35899;50.352;19.390;2023-08-08T01:02:37;97409.54;;;12.37;100.00
50011;BME280;35899;50.352;19.390;2023-08-08T01:05:04;97408.88;;;12.35;100.00
50011;BME280;35899;50.352;19.390;2023-08-08T01:13:22;97413.73;;;12.28;100.00
50011;BME280;35899;50.352;19.390;2023-08-08T01:15:50;97415.54;;;12.25;100.00
50011;BME280;35899;50.352;19.390;2023-08-08T01:18:16;97414.33;;;12.21;100.00
50011;BME280;35899;50.352;19.390;2023-08-08T01:20:44;97415.55;;;12.19;100.00
50011;BME280;35899;50.352;19.390;2023-08-08T01:23:12;97416.64;;;12.17;100.00
50011;BME280;35899;50.352;19.390;2023-08-08T01:25:40;97417.90;;;12.14;100.00
50011;BME280;35899;50.352;19.390;2023-08-08T01:28:07;97418.77;;;12.10;100.00
50011;BME280;35899;50.352;19.390;2023-08-08T01:30:34;97414.02;;;12.06;100.00
50011;BME280;35899;50.352;19.390;2023-08-08T01:33:01;97415.15;;;12.03;100.00
50011;BME280;35899;50.352;19.390;2023-08-08T01:35:31;97414.08;;;11.99;100.00
50011;BME280;35899;50.352;19.390;2023-08-08T01:38:01;97416.05;;;11.97;100.00
50011;BME280;35899;50.352;19.390;2023-08-08T01:40:30;97417.20;;;11.93;100.00
50011;BME280;35899;50.352;19.390;2023-08-08T01:42:58;97420.11;;;11.90;100.00
50011;BME280;35899;50.352;19.390;2023-08-08T01:45:25;97420.14;;;11.87;100.00
50011;BME280;35899;50.352;19.390;2023-08-08T01:47:52;97418.44;;;11.84;100.00
50011;BME280;35899;50.352;19.390;2023-08-08T01:50:18;97417.14;;;11.83;100.00
50011;BME280;35899;50.352;19.390;2023-08-08T01:52:45;97417.38;;;11.81;100.00
50011;BME280;35899;50.352;19.390;2023-08-08T01:55:11;97411.86;;;11.78;100.00
50011;BME280;35899;50.352;19.390;2023-08-08T01:57:38;97414.14;;;11.76;100.00
50011;BME280;35899;50.352;19.390;2023-08-08T02:00:06;97419.11;;;11.74;100.00
50011;BME280;35899;50.352;19.390;2023-08-08T02:02:42;97416.58;;;11.71;100.00
50011;BME280;35899;50.352;19.390;2023-08-08T02:05:09;97417.90;;;11.70;100.00
50011;BME280;35899;50.352;19.390;2023-08-08T02:07:35;97422.68;;;11.68;100.00
50011;BME280;35899;50.352;19.390;2023-08-08T02:10:02;97424.10;;;11.68;100.00
50011;BME280;35899;50.352;19.390;2023-08-08T02:12:30;97427.61;;;11.68;100.00
50011;BME280;35899;50.352;19.390;2023-08-08T02:14:57;97426.64;;;11.69;100.00
50011;BME280;35899;50.352;19.390;2023-08-08T02:17:24;97429.56;;;11.69;100.00
50011;BME280;35899;50.352;19.390;2023-08-08T02:19:51;97431.31;;;11.71;100.00
50011;BME280;35899;50.352;19.390;2023-08-08T02:22:19;97434.84;;;11.72;100.00
50011;BME280;35899;50.352;19.390;2023-08-08T02:24:45;97431.94;;;11.74;100.00
50011;BME280;35899;50.352;19.390;2023-08-08T02:27:12;97436.31;;;11.76;100.00
50011;BME280;35899;50.352;19.390;2023-08-08T02:29:39;97434.33;;;11.77;100.00
50011;BME280;35899;50.352;19.390;2023-08-08T02:32:05;97441.35;;;11.78;100.00
50011;BME280;35899;50.352;19.390;2023-08-08T02:34:32;97444.17;;;11.77;100.00
50011;BME280;35899;50.352;19.390;2023-08-08T02:36:59;97445.09;;;11.74;100.00
50011;BME280;35899;50.352;19.390;2023-08-08T02:39:25;97446.68;;;11.72;100.00
50011;BME280;35899;50.352;19.390;2023-08-08T02:41:51;97444.68;;;11.69;100.00
50011;BME280;35899;50.352;19.390;2023-08-08T02:44:19;97448.80;;;11.67;100.00
50011;BME280;35899;50.352;19.390;2023-08-08T02:46:46;97446.70;;;11.65;100.00
50011;BME280;35899;50.352;19.390;2023-08-08T02:49:12;97450.63;;;11.64;100.00
50011;BME280;35899;50.352;19.390;2023-08-08T02:51:39;97452.12;;;11.63;100.00
50011;BME280;35899;50.352;19.390;2023-08-08T02:54:06;97456.19;;;11.62;100.00
50011;BME280;35899;50.352;19.390;2023-08-08T02:56:33;97458.75;;;11.60;100.00
50011;BME280;35899;50.352;19.390;2023-08-08T02:59:00;97465.27;;;11.59;100.00
50011;BME280;35899;50.352;19.390;2023-08-08T03:01:26;97469.16;;;11.58;100.00
50011;BME280;35899;50.352;19.390;2023-08-08T03:03:53;97468.41;;;11.56;100.00
50011;BME280;35899;50.352;19.390;2023-08-08T03:06:21;97474.39;;;11.55;100.00
50011;BME280;35899;50.352;19.390;2023-08-08T03:08:47;97474.63;;;11.54;100.00
50011;BME280;35899;50.352;19.390;2023-08-08T03:11:14;97474.39;;;11.55;100.00
50011;BME280;35899;50.352;19.390;2023-08-08T03:13:41;97478.75;;;11.54;100.00
50011;BME280;35899;50.352;19.390;2023-08-08T03:16:08;97482.77;;;11.54;100.00
50011;BME280;35899;50.352;19.390;2023-08-08T03:18:34;97484.08;;;11.53;100.00
50011;BME280;35899;50.352;19.390;2023-08-08T03:21:01;97495.06;;;11.52;100.00
50011;BME280;35899;50.352;19.390;2023-08-08T03:23:30;97498.44;;;11.51;100.00
50011;BME280;35899;50.352;19.390;2023-08-08T03:25:57;97497.41;;;11.51;100.00
50011;BME280;35899;50.352;19.390;2023-08-08T03:28:24;97500.36;;;11.51;100.00
50011;BME280;35899;50.352;19.390;2023-08-08T03:30:52;97499.71;;;11.50;100.00
50011;BME280;35899;50.352;19.390;2023-08-08T03:33:18;97502.48;;;11.51;100.00
50011;BME280;35899;50.352;19.390;2023-08-08T03:35:45;97509.05;;;11.51;100.00
50011;BME280;35899;50.352;19.390;2023-08-08T03:38:12;97507.24;;;11.52;100.00
50011;BME280;35899;50.352;19.390;2023-08-08T03:40:38;97507.59;;;11.54;100.00
50011;BME280;35899;50.352;19.390;2023-08-08T03:43:05;97506.99;;;11.54;100.00
50011;BME280;35899;50.352;19.390;2023-08-08T03:45:31;97514.81;;;11.57;100.00
50011;BME280;35899;50.352;19.390;2023-08-08T03:47:58;97518.35;;;11.55;100.00
50011;BME280;35899;50.352;19.390;2023-08-08T03:50:24;97520.54;;;11.54;100.00
50011;BME280;35899;50.352;19.390;2023-08-08T03:52:51;97523.44;;;11.55;100.00
50011;BME280;35899;50.352;19.390;2023-08-08T03:55:17;97527.40;;;11.55;100.00
50011;BME280;35899;50.352;19.390;2023-08-08T03:57:43;97530.95;;;11.57;100.00
50011;BME280;35899;50.352;19.390;2023-08-08T04:00:11;97535.18;;;11.58;100.00
50011;BME280;35899;50.352;19.390;2023-08-08T04:02:41;97535.07;;;11.59;100.00
50011;BME280;35899;50.352;19.390;2023-08-08T04:05:07;97538.62;;;11.60;100.00
50011;BME280;35899;50.352;19.390;2023-08-08T04:07:34;97539.52;;;11.60;100.00
50011;BME280;35899;50.352;19.390;2023-08-08T04:10:01;97545.79;;;11.61;100.00
50011;BME280;35899;50.352;19.390;2023-08-08T04:12:27;97544.75;;;11.64;100.00
50011;BME280;35899;50.352;19.390;2023-08-08T04:14:54;97546.44;;;11.66;100.00
50011;BME280;35899;50.352;19.390;2023-08-08T04:17:20;97545.76;;;11.70;100.00
50011;BME280;35899;50.352;19.390;2023-08-08T04:19:47;97547.11;;;11.73;100.00
50011;BME280;35899;50.352;19.390;2023-08-08T04:22:13;97552.52;;;11.77;100.00
50011;BME280;35899;50.352;19.390;2023-08-08T04:24:40;97552.98;;;11.88;100.00
50011;BME280;35899;50.352;19.390;2023-08-08T04:27:06;97553.21;;;12.01;100.00
50011;BME280;35899;50.352;19.390;2023-08-08T04:29:33;97548.63;;;12.12;100.00
50011;BME280;35899;50.352;19.390;2023-08-08T04:32:00;97549.45;;;12.25;100.00
50011;BME280;35899;50.352;19.390;2023-08-08T04:34:27;97552.34;;;12.39;100.00
50011;BME280;35899;50.352;19.390;2023-08-08T04:36:53;97557.83;;;12.54;100.00
50011;BME280;35899;50.352;19.390;2023-08-08T04:39:20;97561.13;;;12.70;100.00
50011;BME280;35899;50.352;19.390;2023-08-08T04:41:46;97564.79;;;12.87;100.00
50011;BME280;35899;50.352;19.390;2023-08-08T04:44:13;97565.64;;;12.91;100.00
50011;BME280;35899;50.352;19.390;2023-08-08T04:46:39;97569.73;;;12.92;100.00
50011;BME280;35899;50.352;19.390;2023-08-08T04:49:06;97574.69;;;12.88;100.00
50011;BME280;35899;50.352;19.390;2023-08-08T04:51:33;97574.38;;;12.84;100.00
50011;BME280;35899;50.352;19.390;2023-08-08T04:53:59;97576.15;;;12.82;100.00
50011;BME280;35899;50.352;19.390;2023-08-08T04:56:26;97578.93;;;12.80;100.00
50011;BME280;35899;50.352;19.390;2023-08-08T04:58:55;97584.13;;;12.82;100.00
50011;BME280;35899;50.352;19.390;2023-08-08T05:01:21;97583.22;;;12.90;100.00
50011;BME280;35899;50.352;19.390;2023-08-08T05:03:48;97586.80;;;13.06;100.00
50011;BME280;35899;50.352;19.390;2023-08-08T05:06:15;97593.00;;;13.24;100.00
50011;BME280;35899;50.352;19.390;2023-08-08T05:08:41;97593.15;;;13.43;100.00
50011;BME280;35899;50.352;19.390;2023-08-08T05:11:08;97597.19;;;13.63;100.00
50011;BME280;35899;50.352;19.390;2023-08-08T05:13:34;97601.88;;;13.79;100.00
50011;BME280;35899;50.352;19.390;2023-08-08T05:16:01;97605.79;;;13.93;100.00
50011;BME280;35899;50.352;19.390;2023-08-08T05:18:27;97602.03;;;14.00;100.00
50011;BME280;35899;50.352;19.390;2023-08-08T05:20:54;97603.67;;;14.01;100.00
50011;BME280;35899;50.352;19.390;2023-08-08T05:23:20;97603.18;;;14.05;100.00
50011;BME280;35899;50.352;19.390;2023-08-08T05:25:47;97606.80;;;14.13;100.00
50011;BME280;35899;50.352;19.390;2023-08-08T05:28:13;97608.04;;;14.23;100.00
50011;BME280;35899;50.352;19.390;2023-08-08T05:30:40;97606.36;;;14.30;100.00
50011;BME280;35899;50.352;19.390;2023-08-08T05:33:06;97611.92;;;14.35;100.00
50011;BME280;35899;50.352;19.390;2023-08-08T05:35:33;97610.83;;;14.40;100.00
50011;BME280;35899;50.352;19.390;2023-08-08T05:37:59;97610.55;;;14.37;100.00
50011;BME280;35899;50.352;19.390;2023-08-08T05:40:26;97613.31;;;14.28;100.00
50011;BME280;35899;50.352;19.390;2023-08-08T05:42:52;97611.94;;;14.24;100.00
50011;BME280;35899;50.352;19.390;2023-08-08T05:45:19;97612.88;;;14.27;100.00
50011;BME280;35899;50.352;19.390;2023-08-08T05:47:45;97620.73;;;14.31;100.00
50011;BME280;35899;50.352;19.390;2023-08-08T05:50:12;97621.11;;;14.36;100.00
50011;BME280;35899;50.352;19.390;2023-08-08T05:52:39;97621.84;;;14.43;100.00
50011;BME280;35899;50.352;19.390;2023-08-08T05:55:06;97625.22;;;14.56;100.00
50011;BME280;35899;50.352;19.390;2023-08-08T05:57:32;97622.42;;;14.74;100.00
50011;BME280;35899;50.352;19.390;2023-08-08T05:59:59;97626.30;;;14.90;100.00
50011;BME280;35899;50.352;19.390;2023-08-08T06:02:38;97624.73;;;14.99;100.00
50011;BME280;35899;50.352;19.390;2023-08-08T06:05:05;97627.53;;;14.88;100.00
50011;BME280;35899;50.352;19.390;2023-08-08T06:07:32;97626.52;;;14.73;100.00
50011;BME280;35899;50.352;19.390;2023-08-08T06:09:59;97629.08;;;14.73;100.00
50011;BME280;35899;50.352;19.390;2023-08-08T06:12:25;97628.64;;;14.74;100.00
50011;BME280;35899;50.352;19.390;2023-08-08T06:14:52;97624.04;;;14.68;100.00
50011;BME280;35899;50.352;19.390;2023-08-08T06:17:18;97631.73;;;14.63;100.00
50011;BME280;35899;50.352;19.390;2023-08-08T06:19:45;97634.15;;;14.65;100.00
50011;BME280;35899;50.352;19.390;2023-08-08T06:22:11;97631.48;;;14.70;100.00
50011;BME280;35899;50.352;19.390;2023-08-08T06:24:38;97630.58;;;14.80;100.00
50011;BME280;35899;50.352;19.390;2023-08-08T06:27:04;97629.70;;;14.89;100.00
50011;BME280;35899;50.352;19.390;2023-08-08T06:29:31;97630.45;;;14.96;100.00
50011;BME280;35899;50.352;19.390;2023-08-08T06:31:58;97632.27;;;14.96;100.00
50011;BME280;35899;50.352;19.390;2023-08-08T06:34:25;97633.85;;;14.97;100.00
50011;BME280;35899;50.352;19.390;2023-08-08T06:36:51;97634.09;;;15.00;100.00
50011;BME280;35899;50.352;19.390;2023-08-08T06:39:18;97635.02;;;15.05;100.00
50011;BME280;35899;50.352;19.390;2023-08-08T06:41:44;97636.77;;;15.11;100.00
50011;BME280;35899;50.352;19.390;2023-08-08T06:44:11;97631.69;;;15.11;100.00
50011;BME280;35899;50.352;19.390;2023-08-08T06:46:37;97635.20;;;15.13;100.00
50011;BME280;35899;50.352;19.390;2023-08-08T06:49:04;97632.85;;;15.12;100.00
50011;BME280;35899;50.352;19.390;2023-08-08T06:51:31;97632.50;;;15.10;100.00
50011;BME280;35899;50.352;19.390;2023-08-08T06:53:57;97630.34;;;15.13;100.00
50011;BME280;35899;50.352;19.390;2023-08-08T06:56:24;97629.19;;;15.17;100.00
50011;BME280;35899;50.352;19.390;2023-08-08T06:58:50;97619.10;;;15.13;100.00
50011;BME280;35899;50.352;19.390;2023-08-08T07:01:17;97617.23;;;15.20;100.00
50011;BME280;35899;50.352;19.390;2023-08-08T07:03:44;97618.20;;;15.33;100.00
50011;BME280;35899;50.352;19.390;2023-08-08T07:06:10;97621.24;;;15.50;100.00
50011;BME280;35899;50.352;19.390;2023-08-08T07:08:37;97621.05;;;15.67;100.00
50011;BME280;35899;50.352;19.390;2023-08-08T07:11:04;97616.52;;;15.87;100.00
50011;BME280;35899;50.352;19.390;2023-08-08T07:13:31;97612.40;;;16.17;99.93
50011;BME280;35899;50.352;19.390;2023-08-08T07:15:57;97614.90;;;16.32;99.92
50011;BME280;35899;50.352;19.390;2023-08-08T07:18:24;97615.98;;;16.49;100.00
50011;BME280;35899;50.352;19.390;2023-08-08T07:20:51;97610.94;;;16.62;100.00
50011;BME280;35899;50.352;19.390;2023-08-08T07:23:17;97614.52;;;16.66;99.82
50011;BME280;35899;50.352;19.390;2023-08-08T07:25:44;97611.91;;;16.61;98.25
50011;BME280;35899;50.352;19.390;2023-08-08T07:28:11;97616.07;;;16.51;97.13
50011;BME280;35899;50.352;19.390;2023-08-08T07:30:38;97611.27;;;16.35;96.95
50011;BME280;35899;50.352;19.390;2023-08-08T07:33:05;97613.74;;;16.26;97.19
50011;BME280;35899;50.352;19.390;2023-08-08T07:35:32;97609.10;;;16.15;96.16
50011;BME280;35899;50.352;19.390;2023-08-08T07:37:59;97615.54;;;16.10;95.85
50011;BME280;35899;50.352;19.390;2023-08-08T07:40:25;97616.38;;;16.12;96.34
50011;BME280;35899;50.352;19.390;2023-08-08T07:42:52;97616.10;;;16.18;96.61
50011;BME280;35899;50.352;19.390;2023-08-08T07:45:18;97614.61;;;16.37;96.42
50011;BME280;35899;50.352;19.390;2023-08-08T07:47:45;97617.48;;;16.45;96.37
50011;BME280;35899;50.352;19.390;2023-08-08T07:50:12;97615.02;;;16.34;96.12
50011;BME280;35899;50.352;19.390;2023-08-08T07:52:38;97613.96;;;16.11;95.49
50011;BME280;35899;50.352;19.390;2023-08-08T07:55:05;97618.76;;;15.93;95.83
50011;BME280;35899;50.352;19.390;2023-08-08T07:57:32;97622.60;;;15.82;96.18
50011;BME280;35899;50.352;19.390;2023-08-08T07:59:59;97623.13;;;15.80;95.29
50011;BME280;35899;50.352;19.390;2023-08-08T08:02:26;97618.17;;;15.88;95.29
50011;BME280;35899;50.352;19.390;2023-08-08T08:04:52;97610.17;;;16.14;95.37
50011;BME280;35899;50.352;19.390;2023-08-08T08:07:19;97615.80;;;16.28;94.33
50011;BME280;35899;50.352;19.390;2023-08-08T08:09:45;97615.66;;;16.06;94.16
50011;BME280;35899;50.352;19.390;2023-08-08T08:12:12;97621.48;;;15.84;94.24
50011;BME280;35899;50.352;19.390;2023-08-08T08:14:38;97622.86;;;15.70;94.05
50011;BME280;35899;50.352;19.390;2023-08-08T08:17:05;97619.30;;;15.76;93.85
50011;BME280;35899;50.352;19.390;2023-08-08T08:19:32;97617.34;;;15.95;93.67
50011;BME280;35899;50.352;19.390;2023-08-08T08:21:58;97610.98;;;16.13;93.37
50011;BME280;35899;50.352;19.390;2023-08-08T08:24:25;97607.42;;;16.37;94.10
50011;BME280;35899;50.352;19.390;2023-08-08T08:26:52;97605.48;;;16.50;93.98
50011;BME280;35899;50.352;19.390;2023-08-08T08:29:18;97610.64;;;16.49;92.45
50011;BME280;35899;50.352;19.390;2023-08-08T08:31:45;97608.00;;;16.28;91.72
50011;BME280;35899;50.352;19.390;2023-08-08T08:34:11;97611.00;;;16.08;91.55
50011;BME280;35899;50.352;19.390;2023-08-08T08:36:38;97615.79;;;16.01;91.62
50011;BME280;35899;50.352;19.390;2023-08-08T08:39:04;97614.42;;;15.98;90.97
50011;BME280;35899;50.352;19.390;2023-08-08T08:41:31;97617.45;;;15.97;91.40
50011;BME280;35899;50.352;19.390;2023-08-08T08:43:58;97615.34;;;15.95;92.33
50011;BME280;35899;50.352;19.390;2023-08-08T08:46:26;97612.98;;;16.06;92.49
50011;BME280;35899;50.352;19.390;2023-08-08T08:48:54;97608.80;;;16.25;92.55
50011;BME280;35899;50.352;19.390;2023-08-08T08:51:21;97604.20;;;16.61;92.72
50011;BME280;35899;50.352;19.390;2023-08-08T08:53:48;97598.95;;;16.92;92.81
50011;BME280;35899;50.352;19.390;2023-08-08T08:56:14;97595.54;;;17.23;92.14
50011;BME280;35899;50.352;19.390;2023-08-08T08:58:41;97590.90;;;17.66;92.50
50011;BME280;35899;50.352;19.390;2023-08-08T09:01:09;97590.94;;;17.79;90.50
50011;BME280;35899;50.352;19.390;2023-08-08T09:03:37;97589.39;;;17.53;88.29
50011;BME280;35899;50.352;19.390;2023-08-08T09:06:04;97587.89;;;17.17;89.23
50011;BME280;35899;50.352;19.390;2023-08-08T09:08:31;97588.60;;;16.91;90.05
50011;BME280;35899;50.352;19.390;2023-08-08T09:10:58;97586.58;;;16.75;89.54
50011;BME280;35899;50.352;19.390;2023-08-08T09:13:24;97588.72;;;16.62;90.10
50011;BME280;35899;50.352;19.390;2023-08-08T09:15:51;97591.37;;;16.55;90.86
50011;BME280;35899;50.352;19.390;2023-08-08T09:18:18;97605.86;;;16.39;91.15
50011;BME280;35899;50.352;19.390;2023-08-08T09:20:49;97617.48;;;16.11;91.68
50011;BME280;35899;50.352;19.390;2023-08-08T09:26:24;97643.44;;;15.12;92.27
50011;BME280;35899;50.352;19.390;2023-08-08T09:28:53;97649.70;;;14.63;92.65
50011;BME280;35899;50.352;19.390;2023-08-08T09:31:29;97645.98;;;14.24;94.35
50011;BME280;35899;50.352;19.390;2023-08-08T09:34:00;97625.27;;;14.11;95.73
50011;BME280;35899;50.352;19.390;2023-08-08T09:36:29;97614.39;;;14.22;97.36
50011;BME280;35899;50.352;19.390;2023-08-08T09:38:59;97611.23;;;14.51;97.85
50011;BME280;35899;50.352;19.390;2023-08-08T09:41:26;97615.06;;;14.74;98.36
50011;BME280;35899;50.352;19.390;2023-08-08T09:43:53;97621.39;;;14.79;98.91
50011;BME280;35899;50.352;19.390;2023-08-08T09:46:20;97617.09;;;14.68;99.70
50011;BME280;35899;50.352;19.390;2023-08-08T09:48:47;97618.41;;;14.57;100.00
50011;BME280;35899;50.352;19.390;2023-08-08T09:51:14;97620.38;;;14.46;100.00
50011;BME280;35899;50.352;19.390;2023-08-08T09:53:41;97621.98;;;14.42;100.00
50011;BME280;35899;50.352;19.390;2023-08-08T09:56:08;97614.88;;;14.55;100.00
50011;BME280;35899;50.352;19.390;2023-08-08T09:58:34;97615.37;;;14.67;100.00
50011;BME280;35899;50.352;19.390;2023-08-08T10:01:01;97625.88;;;14.70;100.00
50011;BME280;35899;50.352;19.390;2023-08-08T10:03:27;97627.92;;;14.74;100.00
50011;BME280;35899;50.352;19.390;2023-08-08T10:05:54;97631.40;;;14.71;100.00
50011;BME280;35899;50.352;19.390;2023-08-08T10:08:21;97634.42;;;14.72;100.00
50011;BME280;35899;50.352;19.390;2023-08-08T10:10:48;97629.75;;;14.81;100.00
50011;BME280;35899;50.352;19.390;2023-08-08T10:13:22;97625.39;;;14.98;100.00
50011;BME280;35899;50.352;19.390;2023-08-08T10:15:50;97613.95;;;15.22;100.00
50011;BME280;35899;50.352;19.390;2023-08-08T10:18:17;97607.61;;;15.74;100.00
50011;BME280;35899;50.352;19.390;2023-08-08T10:20:46;97598.86;;;16.81;100.00
50011;BME280;35899;50.352;19.390;2023-08-08T10:23:16;97595.33;;;17.89;100.00
50011;BME280;35899;50.352;19.390;2023-08-08T10:25:44;97593.63;;;18.32;99.61
50011;BME280;35899;50.352;19.390;2023-08-08T10:28:11;97591.48;;;18.72;98.63
50011;BME280;35899;50.352;19.390;2023-08-08T10:30:54;97592.86;;;19.27;96.95
50011;BME280;35899;50.352;19.390;2023-08-08T10:33:24;97588.03;;;19.83;96.01
50011;BME280;35899;50.352;19.390;2023-08-08T10:36:04;97584.91;;;20.07;92.83
50011;BME280;35899;50.352;19.390;2023-08-08T10:38:45;97578.27;;;19.88;94.15
50011;BME280;35899;50.352;19.390;2023-08-08T10:41:13;97579.94;;;19.22;94.14
50011;BME280;35899;50.352;19.390;2023-08-08T10:43:46;97576.73;;;18.64;95.09
50011;BME280;35899;50.352;19.390;2023-08-08T10:46:14;97580.83;;;18.23;94.97
50011;BME280;35899;50.352;19.390;2023-08-08T10:48:52;97577.70;;;18.10;95.70
50011;BME280;35899;50.352;19.390;2023-08-08T10:51:19;97573.76;;;18.20;95.96
50011;BME280;35899;50.352;19.390;2023-08-08T10:53:46;97575.10;;;18.39;93.49
50011;BME280;35899;50.352;19.390;2023-08-08T10:56:13;97575.30;;;18.96;92.72
50011;BME280;35899;50.352;19.390;2023-08-08T10:58:41;97572.17;;;19.43;90.97
50011;BME280;35899;50.352;19.390;2023-08-08T11:01:08;97569.78;;;20.39;88.92
50011;BME280;35899;50.352;19.390;2023-08-08T11:03:35;97572.41;;;20.34;86.49
50011;BME280;35899;50.352;19.390;2023-08-08T11:06:02;97574.00;;;19.78;85.52
50011;BME280;35899;50.352;19.390;2023-08-08T11:08:32;97589.60;;;19.06;86.14
50011;BME280;35899;50.352;19.390;2023-08-08T11:10:59;97602.73;;;18.40;87.89
50011;BME280;35899;50.352;19.390;2023-08-08T11:13:26;97635.06;;;17.78;88.17
50011;BME280;35899;50.352;19.390;2023-08-08T11:15:54;97636.80;;;17.00;88.29
50011;BME280;35899;50.352;19.390;2023-08-08T11:18:21;97640.82;;;16.35;89.78
50011;BME280;35899;50.352;19.390;2023-08-08T11:20:49;97639.20;;;15.90;91.42
50011;BME280;35899;50.352;19.390;2023-08-08T11:23:16;97636.28;;;15.68;92.86
50011;BME280;35899;50.352;19.390;2023-08-08T11:25:45;97632.16;;;15.58;94.25
50011;BME280;35899;50.352;19.390;2023-08-08T11:28:12;97630.89;;;15.64;95.13
50011;BME280;35899;50.352;19.390;2023-08-08T11:30:40;97618.52;;;15.89;95.43
50011;BME280;35899;50.352;19.390;2023-08-08T11:33:07;97610.93;;;16.23;95.39
50011;BME280;35899;50.352;19.390;2023-08-08T11:35:37;97612.71;;;17.13;94.17
50011;BME280;35899;50.352;19.390;2023-08-08T11:38:03;97610.75;;;18.66;91.22
50011;BME280;35899;50.352;19.390;2023-08-08T11:40:31;97606.07;;;20.40;87.50
50011;BME280;35899;50.352;19.390;2023-08-08T11:42:58;97605.80;;;21.90;84.06
50011;BME280;35899;50.352;19.390;2023-08-08T11:45:25;97607.70;;;23.34;81.49
50011;BME280;35899;50.352;19.390;2023-08-08T11:47:52;97600.14;;;24.55;77.94
50011;BME280;35899;50.352;19.390;2023-08-08T11:50:21;97600.05;;;25.49;74.84
50011;BME280;35899;50.352;19.390;2023-08-08T11:52:48;97602.29;;;26.39;71.64
50011;BME280;35899;50.352;19.390;2023-08-08T11:55:14;97600.79;;;27.04;68.41
50011;BME280;35899;50.352;19.390;2023-08-08T11:57:41;97602.73;;;27.47;63.94
50011;BME280;35899;50.352;19.390;2023-08-08T12:00:08;97606.00;;;27.83;60.76
50011;BME280;35899;50.352;19.390;2023-08-08T12:02:41;97605.64;;;28.11;56.61
50011;BME280;35899;50.352;19.390;2023-08-08T12:05:10;97607.56;;;28.24;53.24
50011;BME280;35899;50.352;19.390;2023-08-08T12:07:38;97601.57;;;28.64;54.63
50011;BME280;35899;50.352;19.390;2023-08-08T12:10:05;97604.52;;;28.98;54.33
50011;BME280;35899;50.352;19.390;2023-08-08T12:12:31;97602.08;;;28.67;52.22
50011;BME280;35899;50.352;19.390;2023-08-08T12:14:58;97606.29;;;28.12;53.43
50011;BME280;35899;50.352;19.390;2023-08-08T12:17:34;97609.40;;;26.79;55.19
50011;BME280;35899;50.352;19.390;2023-08-08T12:20:03;97608.84;;;27.24;52.50
50011;BME280;35899;50.352;19.390;2023-08-08T12:22:30;97608.89;;;28.26;50.78
50011;BME280;35899;50.352;19.390;2023-08-08T12:24:58;97609.88;;;28.04;48.54
50011;BME280;35899;50.352;19.390;2023-08-08T12:27:25;97604.55;;;26.23;50.50
50011;BME280;35899;50.352;19.390;2023-08-08T12:29:51;97597.16;;;24.75;52.07
50011;BME280;35899;50.352;19.390;2023-08-08T12:32:21;97603.44;;;24.06;54.34
50011;BME280;35899;50.352;19.390;2023-08-08T12:34:48;97608.33;;;23.74;54.61
50011;BME280;35899;50.352;19.390;2023-08-08T12:37:14;97606.02;;;22.89;54.59
50011;BME280;35899;50.352;19.390;2023-08-08T12:39:41;97607.84;;;22.09;55.50
50011;BME280;35899;50.352;19.390;2023-08-08T12:42:08;97609.20;;;21.50;56.97
50011;BME280;35899;50.352;19.390;2023-08-08T12:44:35;97605.48;;;22.27;55.46
50011;BME280;35899;50.352;19.390;2023-08-08T12:47:01;97605.00;;;23.74;55.81
50011;BME280;35899;50.352;19.390;2023-08-08T12:49:28;97599.39;;;25.85;52.68
50011;BME280;35899;50.352;19.390;2023-08-08T12:51:55;97601.08;;;26.22;52.25